Flight Track Log - Related Links

Times and Time Zones

All times are in EST time to prevent confusion due to time zone crossing. See the USC491 flight status page for this flight to view local times or setup timezone preferences in your user account.


Time Position Orientation Groundspeed Altitude Reporting Facility
EST Latitude Longitude Course Direction KTS MPH feet Rate Location/Type
Tue 07:13:09 AM 32.9500 -96.8333 140° Southeast 93 107 1,600  Level Dallas / Fort Worth TRACON
Tue 07:13:33 AM 32.9333 -96.8167 140° Southeast 96 110 1,900 929 Climbing Dallas / Fort Worth TRACON
Tue 07:14:33 AM 32.9167 -96.8167 180° South 97 112 2,900 526 Climbing Dallas / Fort Worth TRACON
Tue 07:15:27 AM 32.8833 -96.8333 203° Southwest 145 167 2,900  Level Dallas / Fort Worth TRACON
Tue 07:16:27 AM 32.8500 -96.8667 220° Southwest 131 151 2,900  Level Dallas / Fort Worth TRACON
Tue 07:17:39 AM 32.8000 -96.8833 196° South 132 152 2,900 182 Level Dallas / Fort Worth TRACON
Tue 07:18:39 AM 32.7667 -96.8833 180° South 147 169 3,300 474 Climbing Dallas / Fort Worth TRACON
Tue 07:19:33 AM 32.7333 -96.8667 157° South 122 140 3,800 333 Climbing Dallas / Fort Worth TRACON
Tue 07:20:27 AM 32.7000 -96.8667 180° South 147 169 3,900 50 Climbing Dallas / Fort Worth TRACON
Tue 07:21:33 AM 32.6667 -96.8500 157° South 150 173 3,900 238 Level Dallas / Fort Worth TRACON
Tue 07:22:33 AM 32.6167 -96.8333 164° South 130 150 4,400 511 Climbing Dallas / Fort Worth TRACON
Tue 07:23:07 AM 32.6028 -96.8369 192° South 128 147 4,700 253 Climbing Fort Worth Center
Tue 07:24:08 AM 32.5664 -96.8353 178° South 131 151 4,800 99 Climbing Fort Worth Center
Tue 07:25:08 AM 32.5236 -96.8328 177° South 142 163 4,900  Climbing Fort Worth Center
Tue 07:26:09 AM 32.4828 -96.8289 175° South 146 168 4,800  Descending Fort Worth Center
Tue 07:27:09 AM 32.4425 -96.8278 179° South 145 167 4,900  Climbing Fort Worth Center
Tue 07:28:10 AM 32.4033 -96.8328 186° South 142 163 4,800  Descending Fort Worth Center
Tue 07:29:10 AM 32.3647 -96.8425 192° South 141 162 4,900  Climbing Fort Worth Center
Tue 07:30:11 AM 32.3247 -96.8425 180° South 146 168 4,800  Descending Fort Worth Center
Tue 07:31:11 AM 32.2842 -96.8311 167° South 150 173 4,900 50 Climbing Fort Worth Center
Tue 07:32:12 AM 32.2447 -96.8206 167° South 148 170 4,900  Level Fort Worth Center
Tue 07:33:12 AM 32.2092 -96.8122 169° South 145 167 4,900 -50 Level Fort Worth Center
Tue 07:34:13 AM 32.1697 -96.8044 171° South 143 165 4,800 -50 Descending Fort Worth Center
Tue 07:35:13 AM 32.1317 -96.7939 167° South 142 163 4,800 50 Level Fort Worth Center
Tue 07:36:14 AM 32.0933 -96.7833 167° South 141 162 4,900 50 Climbing Fort Worth Center
Tue 07:37:14 AM 32.0564 -96.7753 170° South 137 158 4,900  Level Fort Worth Center
Tue 07:38:15 AM 32.0211 -96.7636 164° South 133 153 4,900  Level Fort Worth Center
Tue 07:39:15 AM 31.9789 -96.7528 168° South 129 148 4,900  Level Fort Worth Center
Tue 07:40:16 AM 31.9456 -96.7436 167° South 128 147 4,900  Level Fort Worth Center
Tue 07:41:17 AM 31.9108 -96.7344 167° South 127 146 4,900  Level Fort Worth Center
Tue 07:42:17 AM 31.8767 -96.7256 168° South 125 144 4,900  Level Fort Worth Center
Tue 07:42:59 AM 31.8556 -96.7247 178° South 120 138 4,900  Level Houston Center
Tue 07:44:00 AM 31.8203 -96.7122 163° South 124 143 4,900  Level Houston Center
Tue 07:45:01 AM 31.7864 -96.7006 164° South 125 144 4,900  Level Houston Center
Tue 07:46:01 AM 31.7528 -96.6919 168° South 125 144 4,900 -50 Level Houston Center
Tue 07:47:02 AM 31.7172 -96.6814 166° South 126 145 4,800  Descending Houston Center
Tue 07:48:03 AM 31.6839 -96.6706 165° South 125 144 4,900  Climbing Houston Center
Tue 07:49:04 AM 31.6486 -96.6597 165° South 127 146 4,800  Descending Houston Center
Tue 07:50:05 AM 31.6150 -96.6508 167° South 126 145 4,900 50 Climbing Houston Center
Tue 07:51:05 AM 31.5806 -96.6397 165° South 125 144 4,900  Level Houston Center
Tue 07:52:06 AM 31.5456 -96.6289 165° South 127 146 4,900  Level Houston Center
Tue 07:53:07 AM 31.5111 -96.6181 165° South 127 146 4,900  Level Houston Center
Tue 07:54:08 AM 31.4767 -96.6097 168° South 126 145 4,900  Level Houston Center
Tue 07:55:09 AM 31.4419 -96.6025 170° South 126 145 4,900  Level Houston Center
Tue 07:56:10 AM 31.4069 -96.5950 170° South 126 145 4,900  Level Houston Center
Tue 07:57:10 AM 31.3728 -96.5869 169° South 125 144 4,900  Level Houston Center
Tue 07:58:11 AM 31.3378 -96.5800 170° South 125 144 4,900  Level Houston Center
Tue 07:59:12 AM 31.3028 -96.5733 171° South 126 145 4,900  Level Houston Center
Tue 08:00:13 AM 31.2678 -96.5664 170° South 125 144 4,900  Level Houston Center
Tue 08:01:14 AM 31.2314 -96.5572 168° South 128 147 4,900  Level Houston Center
Tue 08:01:33 AM 31.2161 -96.5547 172° South 130 150 4,900  Level Houston Center
Tue 08:02:15 AM 31.1953 -96.5494 168° South 130 150 4,900  Level Houston Center
Tue 08:02:33 AM 31.1819 -96.5461 168° South 127 146 4,900  Level Houston Center
Tue 08:03:16 AM 31.1619 -96.5425 171° South 126 145 4,900  Level Houston Center
Tue 08:03:34 AM 31.1481 -96.5403 172° South 124 143 4,900  Level Houston Center
Tue 08:04:17 AM 31.1244 -96.5356 170° South 122 140 4,900  Level Houston Center
Tue 08:05:29 AM 31.0839 -96.5278 171° South 123 142 4,900  Level Houston Center
Tue 08:06:18 AM 31.0561 -96.5211 168° South 123 142 4,900  Level Houston Center
Tue 08:06:19 AM 31.0603 -96.5214 357° North 122 140 4,900  Level Houston Center
Tue 08:07:20 AM 31.0261 -96.5089 163° South 124 143 4,900  Level Houston Center
Tue 08:07:25 AM 31.0194 -96.5081 174° South 125 144 4,900  Level Houston Center
Tue 08:08:21 AM 30.9922 -96.5006 167° South 124 143 4,900  Level Houston Center
Tue 08:08:26 AM 30.9833 -96.5000 177° South 124 143 4,900  Level Houston Center
Tue 08:09:22 AM 30.9586 -96.4928 166° South 123 142 4,900  Level Houston Center
Tue 08:09:26 AM 30.9511 -96.4914 171° South 124 143 4,900  Level Houston Center
Tue 08:10:23 AM 30.9233 -96.4842 167° South 125 144 4,900  Level Houston Center
Tue 08:10:27 AM 30.9147 -96.4831 174° South 124 143 4,900  Level Houston Center
Tue 08:11:24 AM 30.8883 -96.4767 168° South 125 144 4,900  Level Houston Center
Tue 08:11:34 AM 30.8764 -96.4753 174° South 125 144 4,900  Level Houston Center
Tue 08:12:25 AM 30.8550 -96.4703 169° South 123 142 4,900  Level Houston Center
Tue 08:12:41 AM 30.8419 -96.4669 168° South 125 144 4,900  Level Houston Center
Tue 08:13:26 AM 30.8200 -96.4622 170° South 124 143 4,900  Level Houston Center
Tue 08:13:42 AM 30.8058 -96.4586 168° South 122 140 4,900  Level Houston Center
Tue 08:14:27 AM 30.7869 -96.4547 170° South 123 142 4,900  Level Houston Center
Tue 08:14:37 AM 30.7781 -96.4544 178° South 119 137 4,900  Level Houston Center
Tue 08:15:28 AM 30.7553 -96.4528 176° South 118 136 4,900  Level Houston Center
Tue 08:15:37 AM 30.7442 -96.4508 171° South 115 132 4,900  Level Houston Center
Tue 08:16:32 AM 30.7169 -96.4492 177° South 115 132 4,900  Level Houston Center
Tue 08:17:30 AM 30.6839 -96.4422 170° South 119 137 4,900  Level Houston Center
Tue 08:17:39 AM 30.6806 -96.4408 160° South 120 138 4,900  Level Houston Center
Tue 08:18:31 AM 30.6511 -96.4336 168° South 120 138 4,900  Level Houston Center
Tue 08:18:34 AM 30.6483 -96.4322 157° South 122 140 4,900  Level Houston Center
Tue 08:19:32 AM 30.6175 -96.4239 167° South 122 140 4,900  Level Houston Center
Tue 08:19:35 AM 30.6161 -96.4239 180° South 121 139 4,900  Level Houston Center
Tue 08:20:34 AM 30.5847 -96.4136 164° South 121 139 4,900  Level Houston Center
Tue 08:20:36 AM 30.5817 -96.4131 171° South 121 139 4,900  Level Houston Center
Tue 08:21:35 AM 30.5519 -96.3997 159° South 123 142 4,900  Level Houston Center
Tue 08:21:37 AM 30.5514 -96.3994 157° South 124 143 4,900  Level Houston Center
Tue 08:22:36 AM 30.5197 -96.3869 161° South 122 140 4,900  Level Houston Center
Tue 08:22:43 AM 30.5144 -96.3867 177° South 121 139 4,900  Level Houston Center
Tue 08:23:37 AM 30.4875 -96.3753 160° South 120 138 4,900  Level Houston Center
Tue 08:23:44 AM 30.4819 -96.3733 163° South 121 139 4,900  Level Houston Center
Tue 08:24:39 AM 30.4556 -96.3592 155° Southeast 122 140 4,900  Level Houston Center
Tue 08:24:51 AM 30.4469 -96.3553 159° South 119 137 4,900 90 Level Houston Center
Tue 08:25:46 AM 30.4186 -96.3439 161° South 121 139 5,000 55 Climbing Houston Center
Tue 08:26:41 AM 30.3925 -96.3311 157° South 120 138 5,000  Level Houston Center
Tue 08:26:47 AM 30.3858 -96.3283 160° South 122 140 5,000 -98 Level Houston Center
Tue 08:27:42 AM 30.3594 -96.3142 155° Southeast 120 138 4,900 -107 Descending Houston Center
Tue 08:27:43 AM 30.3611 -96.3147 344° North 123 142 4,900  Level Houston Center
Tue 08:28:43 AM 30.3286 -96.2958 153° Southeast 119 137 4,900  Level Houston Center
Tue 08:28:44 AM 30.3328 -96.2975 341° North 116 133 4,900 98 Level Houston Center
Tue 08:29:44 AM 30.2983 -96.2847 162° South 115 132 5,000 98 Climbing Houston Center
Tue 08:29:45 AM 30.3011 -96.2842 10° North 119 137 5,000 -95 Level Houston Center
Tue 08:30:47 AM 30.2700 -96.2714 160° South 119 137 4,900  Descending Houston Center
Tue 08:30:50 AM 30.2636 -96.2694 165° South 122 140 5,000 98 Climbing Houston Center
Tue 08:31:48 AM 30.2386 -96.2567 156° South 120 138 5,000  Level Houston Center
Tue 08:31:51 AM 30.2308 -96.2536 161° South 121 139 5,000 -103 Level Houston Center
Tue 08:32:46 AM 30.2025 -96.2422 161° South 120 138 4,900 -102 Descending Houston Center
Tue 08:32:50 AM 30.2069 -96.2447 334° Northwest 119 137 4,900 92 Level Houston Center
Tue 08:33:51 AM 30.1747 -96.2319 161° South 120 138 5,000  Climbing Houston Center
Tue 08:34:52 AM 30.1367 -96.2192 164° South 121 139 4,900  Descending Houston Center
Tue 08:34:55 AM 30.1353 -96.2183 153° Southeast 121 139 5,000 97 Climbing Houston Center
Tue 08:35:54 AM 30.1064 -96.2092 165° South 119 137 5,000  Level Houston Center
Tue 08:35:55 AM 30.1031 -96.2075 157° South 119 137 5,000 -98 Level Houston Center
Tue 08:36:55 AM 30.0744 -96.1978 164° South 119 137 4,900 -98 Descending Houston Center
Tue 08:36:56 AM 30.0686 -96.1969 173° South 123 142 4,900  Level Houston Center
Tue 08:37:57 AM 30.0428 -96.1817 153° Southeast 125 144 4,900 49 Level Houston Center
Tue 08:38:58 AM 30.0108 -96.1636 154° Southeast 127 146 5,000  Climbing Houston Center
Tue 08:40:00 AM 29.9783 -96.1478 157° South 126 145 4,900  Descending Houston Center
Tue 08:40:05 AM 29.9694 -96.1431 155° Southeast 126 145 5,000  Climbing Houston Center
Tue 08:41:00 AM 29.9422 -96.1197 143° Southeast 140 161 4,900 -107 Descending Houston Center
Tue 08:41:01 AM 29.9431 -96.1200 344° North 135 155 4,900 -381 Level Houston Center
Tue 08:42:03 AM 29.9169 -96.0842 130° Southeast 146 168 4,500 -455 Descending Houston Center
Tue 08:42:07 AM 29.9119 -96.0822 161° South 150 173 4,400 -462 Descending Houston Center
Tue 08:43:08 AM 29.8817 -96.0469 135° Southeast 150 173 4,000 -200 Descending Houston Center
Tue 08:44:07 AM 29.8561 -96.0208 138° Southeast 143 165 4,000  Level Houston Center
Tue 08:45:04 AM 29.8261 -95.9883 137° Southeast 140 161 4,000  Level Houston Center
Tue 08:45:08 AM 29.8258 -95.9864 99° East 140 161 4,000  Level Houston Center
Tue 08:46:05 AM 29.7983 -95.9578 138° Southeast 143 165 4,000  Level Houston Center
Tue 08:46:09 AM 29.7978 -95.9558 108° East 140 161 4,000  Level Houston Center
Tue 08:47:11 AM 29.7686 -95.9231 136° Southeast 143 165 4,000  Level Houston Center
Tue 08:48:07 AM 29.7381 -95.8925 139° Southeast 145 167 4,000  Level Houston Center
Tue 08:48:13 AM 29.7392 -95.8919 23° Northeast 144 166 4,000  Level Houston Center
Tue 08:49:02 AM 29.7106 -95.8669 143° Southeast 141 162 4,000  Level Houston Center
Tue 08:49:15 AM 29.7094 -95.8633 110° East 141 162 4,000  Level Houston Center
Tue 08:50:03 AM 29.6806 -95.8367 141° Southeast 147 169 4,000 -98 Level Houston Center
Tue 08:50:16 AM 29.6781 -95.8331 129° Southeast 145 167 3,900 -320 Descending Houston Center
Tue 08:51:18 AM 29.6469 -95.8031 140° Southeast 146 168 3,600 -439 Descending Houston Center
Tue 08:52:19 AM 29.6108 -95.7536 130° Southeast 163 188 3,000 -293 Descending Houston Center
Tue 08:53:21 AM 29.5869 -95.7092 122° Southeast 165 190 3,000  Level Houston Center
Tue 08:54:22 AM 29.5678 -95.6661 117° Southeast 156 180 3,000  Level Houston Center
Tue 08:55:15 AM 29.5486 -95.6261 119° Southeast 155 178 3,000  Level Houston Center
Tue 08:55:24 AM 29.5481 -95.6219 99° East 155 178 3,000  Level Houston Center
Tue 08:56:16 AM 29.5275 -95.5806 120° Southeast 158 182 3,000  Level Houston Center
Tue 08:56:26 AM 29.5272 -95.5778 97° East 157 181 3,000  Level Houston Center
Tue 08:57:12 AM 29.5131 -95.5367 112° Southeast 163 188 3,000  Level Houston Center
Tue 08:57:27 AM 29.5122 -95.5306 99° East 158 182 3,000 -500 Level Houston Center
Tue 08:58:12 AM 29.4983 -95.4881 111° Southeast 161 185 2,500 -387 Descending Houston Center
Tue 08:58:29 AM 29.4972 -95.4761 96° East 161 185 2,600 -484 Climbing Houston Center
Tue 08:59:14 AM 29.5125 -95.4361 66° East 174 200 2,000 -590 Descending Houston Center
Tue 08:59:30 AM 29.5197 -95.4233 57° Northeast 175 201 2,000  Level Houston Center
Tue 09:00:32 AM 29.5511 -95.3836 48° Northeast 170 196 2,000 -57 Level Houston Center
Tue 09:01:16 AM 29.5764 -95.3564 43° Northeast 166 191 1,900 -194 Descending Houston Center
Tue 09:01:34 AM 29.5836 -95.3464 50° Northeast 168 193 1,800 -787 Descending Houston Center
Tue 09:02:17 AM 29.6031 -95.3242 45° Northeast 131 151 1,100 -885 Descending Houston Center
Tue 09:02:35 AM 29.6100 -95.3161 45° Northeast 151 174 900 -689 Descending Houston Center
Tue 09:03:18 AM 29.6256 -95.2975 46° Northeast 110 127 400 -581 Descending Houston Center
Tue 09:03:37 AM 29.6317 -95.2919 38° Northeast 127 146 300 -316 Descending Houston Center

Login

Don't have an account? Register now (free) for customized features, flight alerts, and more!